Time;durP1;ratioP1;P1;durP2;ratioP2;P2;SDS_P1;SDS_P2;PMS_P1;PMS_P2;Temp;Humidity;BMP_temperature;BMP_pressure;BME280_temperature;BME280_humidity;BME280_pressure;Samples;Min_cycle;Max_cycle;Signal;HPM_P1;HPM_P2
2021/04/29 00:01:23;;;;;;;13.87;13.20;;;14.20;52.90;;;;;;5093209;28;20438;-63
2021/04/29 00:03:50;;;;;;;13.00;12.57;;;14.10;53.30;;;;;;5093239;28;20450;-63
2021/04/29 00:06:17;;;;;;;14.30;13.70;;;14.00;53.90;;;;;;5093232;28;20443;-64
2021/04/29 00:08:43;;;;;;;13.60;13.10;;;13.80;54.90;;;;;;5092971;28;20816;-63
2021/04/29 00:11:11;;;;;;;13.93;13.30;;;13.80;54.10;;;;;;5093023;28;20438;-63
2021/04/29 00:13:37;;;;;;;14.77;13.97;;;13.80;53.70;;;;;;5093117;28;20546;-64
2021/04/29 00:16:04;;;;;;;14.50;13.70;;;13.80;53.00;;;;;;5092727;28;20482;-66
2021/04/29 00:18:30;;;;;;;13.83;13.30;;;13.80;52.60;;;;;;5092172;28;20507;-63
2021/04/29 00:20:57;;;;;;;14.67;14.07;;;13.80;52.60;;;;;;5092763;28;20485;-63
2021/04/29 00:23:24;;;;;;;13.80;13.20;;;13.70;52.50;;;;;;5092842;28;20438;-63
2021/04/29 00:25:51;;;;;;;14.10;13.20;;;13.60;53.20;;;;;;5092703;28;20465;-63
2021/04/29 00:28:17;;;;;;;13.80;13.27;;;13.50;54.50;;;;;;5092677;28;20450;-63
2021/04/29 00:30:43;;;;;;;13.10;12.60;;;13.50;55.90;;;;;;5092760;28;20820;-64
2021/04/29 00:33:09;;;;;;;13.83;13.33;;;13.40;57.40;;;;;;5092822;28;20438;-63
2021/04/29 00:35:36;;;;;;;14.23;13.40;;;13.30;58.70;;;;;;5092393;28;20559;-63
2021/04/29 00:38:02;;;;;;;14.00;13.40;;;13.20;60.00;;;;;;5092266;28;21066;-66
2021/04/29 00:40:29;;;;;;;14.00;13.37;;;13.10;62.30;;;;;;5092493;28;20446;-64
2021/04/29 00:42:56;;;;;;;14.17;13.37;;;13.00;65.00;;;;;;5092523;28;20441;-63
2021/04/29 00:45:22;;;;;;;14.47;13.40;;;12.90;68.10;;;;;;5092198;28;20983;-63
2021/04/29 00:47:49;;;;;;;13.13;12.63;;;12.80;70.90;;;;;;5092294;28;20446;-63
2021/04/29 00:50:19;;;;;;;13.43;12.83;;;12.80;72.60;;;;;;5092212;28;20450;-63
2021/04/29 00:52:45;;;;;;;13.73;13.20;;;12.60;75.80;;;;;;5092297;28;20446;-64
2021/04/29 00:55:12;;;;;;;13.07;12.57;;;12.60;78.00;;;;;;5092220;28;20466;-63
2021/04/29 00:57:39;;;;;;;13.20;12.70;;;12.50;81.30;;;;;;5092120;28;20849;-63
2021/04/29 01:00:07;;;;;;;13.87;13.13;;;12.40;84.30;;;;;;5091983;28;20449;-63
2021/04/29 01:02:36;;;;;;;15.87;14.40;;;12.40;83.90;;;;;;5092258;28;20442;-63
2021/04/29 01:05:06;;;;;;;14.40;13.70;;;12.30;84.00;;;;;;5091972;28;20515;-63
2021/04/29 01:07:38;;;;;;;13.97;13.27;;;12.30;85.70;;;;;;5092223;28;20496;-63
2021/04/29 01:10:11;;;;;;;13.60;13.00;;;12.20;86.20;;;;;;5091878;28;20502;-64
2021/04/29 01:12:45;;;;;;;13.40;12.80;;;12.20;88.30;;;;;;5092134;28;20492;-63
2021/04/29 01:15:12;;;;;;;13.30;12.80;;;12.10;90.80;;;;;;5092062;28;20827;-63
2021/04/29 01:17:44;;;;;;;13.37;12.77;;;12.00;92.70;;;;;;5091852;28;20493;-63
2021/04/29 01:20:15;;;;;;;13.40;12.60;;;12.00;93.80;;;;;;5091918;28;20442;-64
2021/04/29 01:22:47;;;;;;;13.50;12.83;;;11.90;94.70;;;;;;5091956;28;20445;-63
2021/04/29 01:25:16;;;;;;;14.10;13.00;;;11.80;95.50;;;;;;5091842;28;20975;-63
2021/04/29 01:27:43;;;;;;;13.60;13.00;;;11.80;96.60;;;;;;5091540;28;20476;-65
2021/04/29 01:30:12;;;;;;;13.13;12.57;;;11.70;96.80;;;;;;5091681;28;20434;-63
2021/04/29 01:32:40;;;;;;;14.27;13.67;;;11.70;98.30;;;;;;5091801;28;20901;-63
2021/04/29 01:35:09;;;;;;;13.47;12.67;;;11.60;99.50;;;;;;5091642;28;20482;-63
2021/04/29 01:37:36;;;;;;;13.60;12.80;;;11.60;99.90;;;;;;5091710;28;20507;-63
2021/04/29 01:40:05;;;;;;;13.70;12.80;;;11.60;99.90;;;;;;5091621;28;20454;-66
2021/04/29 01:42:34;;;;;;;12.90;12.20;;;11.60;99.90;;;;;;5091666;28;20477;-63
2021/04/29 01:45:03;;;;;;;13.73;13.03;;;11.60;99.90;;;;;;5091702;28;20470;-63
2021/04/29 01:47:32;;;;;;;13.83;12.93;;;11.60;99.90;;;;;;5091577;28;20820;-64
2021/04/29 01:49:58;;;;;;;13.37;12.37;;;11.60;99.90;;;;;;5091596;28;20486;-63
2021/04/29 01:52:25;;;;;;;14.50;13.73;;;11.60;99.90;;;;;;5091622;28;20516;-63
2021/04/29 01:54:51;;;;;;;14.40;13.60;;;11.70;99.90;;;;;;5091424;28;20515;-67
2021/04/29 01:57:18;;;;;;;14.80;13.90;;;11.80;99.90;;;;;;5091567;28;20438;-63
2021/04/29 01:59:44;;;;;;;16.10;15.10;;;11.90;99.90;;;;;;5091576;28;20442;-63
2021/04/29 02:02:11;;;;;;;15.53;14.50;;;12.00;99.80;;;;;;5091510;28;20442;-63
2021/04/29 02:04:37;;;;;;;16.57;15.50;;;12.00;99.40;;;;;;5091414;28;20450;-68
2021/04/29 02:07:04;;;;;;;16.93;15.80;;;12.10;99.30;;;;;;5091426;28;20493;-66
2021/04/29 02:09:30;;;;;;;16.50;15.40;;;12.20;99.30;;;;;;5091349;28;20435;-63
2021/04/29 02:11:59;;;;;;;16.50;15.33;;;12.20;98.80;;;;;;5091420;28;20443;-63
2021/04/29 02:14:31;;;;;;;15.50;14.70;;;12.30;98.80;;;;;;5091442;28;20501;-63
2021/04/29 02:17:01;;;;;;;16.17;14.83;;;12.40;98.60;;;;;;5091415;28;20503;-64
2021/04/29 02:19:28;;;;;;;16.20;14.80;;;12.40;98.00;;;;;;5091355;28;20442;-63
2021/04/29 02:21:55;;;;;;;17.10;16.03;;;12.40;97.80;;;;;;5091358;28;20449;-65
2021/04/29 02:24:22;;;;;;;16.83;15.70;;;12.50;97.90;;;;;;5091314;28;20492;-63
2021/04/29 02:26:50;;;;;;;16.70;15.50;;;12.50;97.80;;;;;;5091309;28;20477;-63
2021/04/29 02:29:17;;;;;;;17.33;16.03;;;12.60;97.60;;;;;;5091170;28;20450;-63
2021/04/29 02:31:44;;;;;;;17.83;16.83;;;12.70;97.10;;;;;;5091289;28;20450;-63
2021/04/29 02:34:10;;;;;;;16.60;15.50;;;12.70;97.30;;;;;;5091077;28;20480;-63
2021/04/29 02:36:38;;;;;;;16.33;15.33;;;12.70;97.00;;;;;;5091124;28;20458;-63
2021/04/29 02:39:07;;;;;;;18.13;16.77;;;12.70;96.90;;;;;;5091014;28;20455;-63
2021/04/29 02:41:34;;;;;;;16.60;15.60;;;12.70;96.80;;;;;;5091833;28;20442;-63
2021/04/29 02:44:00;;;;;;;17.93;16.83;;;12.70;97.00;;;;;;5094503;28;20446;-65
2021/04/29 02:46:27;;;;;;;17.93;16.67;;;12.70;97.00;;;;;;5094507;28;20512;-63
2021/04/29 02:48:53;;;;;;;17.17;15.97;;;12.80;96.90;;;;;;5094504;28;20466;-67
2021/04/29 02:51:20;;;;;;;17.50;16.20;;;12.80;97.10;;;;;;5094306;28;20457;-66
2021/04/29 02:53:48;;;;;;;18.23;16.73;;;12.80;97.10;;;;;;5094694;28;20451;-64
2021/04/29 02:56:15;;;;;;;17.70;16.60;;;12.80;97.20;;;;;;5094515;28;20517;-64
2021/04/29 02:58:45;;;;;;;19.53;18.30;;;12.80;97.00;;;;;;5094187;28;20972;-64
2021/04/29 03:01:12;;;;;;;18.17;16.90;;;12.80;97.00;;;;;;5094275;28;20442;-63
2021/04/29 03:03:39;;;;;;;18.00;17.00;;;12.80;97.10;;;;;;5094201;28;20449;-65
2021/04/29 03:06:06;;;;;;;18.17;17.07;;;12.80;97.40;;;;;;5094072;28;20978;-62
2021/04/29 03:08:32;;;;;;;18.87;17.67;;;12.70;97.80;;;;;;5094024;28;20853;-68
2021/04/29 03:11:00;;;;;;;18.60;17.43;;;12.70;97.70;;;;;;5094086;28;20442;-64
2021/04/29 03:13:26;;;;;;;19.63;18.20;;;12.70;97.90;;;;;;5094211;28;20438;-64
2021/04/29 03:15:52;;;;;;;18.33;17.13;;;12.70;98.40;;;;;;5094209;28;20450;-67
2021/04/29 03:18:19;;;;;;;20.33;18.73;;;12.70;98.20;;;;;;5093820;28;20472;-67
2021/04/29 03:20:45;;;;;;;19.87;18.47;;;12.70;98.10;;;;;;5093984;28;20450;-64
2021/04/29 03:23:11;;;;;;;19.80;18.40;;;12.70;98.30;;;;;;5094131;28;20461;-65
2021/04/29 03:25:38;;;;;;;19.87;18.47;;;12.70;98.40;;;;;;5093645;28;20486;-64
2021/04/29 03:28:05;;;;;;;18.30;17.00;;;12.60;98.50;;;;;;5093521;28;20450;-65
2021/04/29 03:30:31;;;;;;;20.17;18.67;;;12.60;98.80;;;;;;5093917;28;20507;-64
2021/04/29 03:32:58;;;;;;;20.13;18.67;;;12.70;98.70;;;;;;5093647;28;20454;-65
2021/04/29 03:35:24;;;;;;;19.10;17.90;;;12.60;98.90;;;;;;5093578;28;20507;-64
2021/04/29 03:37:50;;;;;;;19.63;18.33;;;12.60;98.90;;;;;;5093507;28;21014;-64
2021/04/29 03:40:16;;;;;;;20.37;18.77;;;12.60;99.40;;;;;;5093575;28;20500;-64
2021/04/29 03:42:43;;;;;;;20.63;18.90;;;12.60;99.50;;;;;;5093476;28;20442;-64
2021/04/29 03:45:11;;;;;;;21.23;19.33;;;12.60;99.80;;;;;;5093350;28;20469;-64
2021/04/29 03:47:37;;;;;;;21.40;19.70;;;12.60;99.90;;;;;;5093237;28;20545;-66
2021/04/29 03:50:05;;;;;;;21.83;20.33;;;12.50;99.90;;;;;;5093183;28;20446;-64
2021/04/29 03:52:31;;;;;;;21.47;19.97;;;12.50;99.70;;;;;;5093000;28;20442;-64
2021/04/29 03:54:57;;;;;;;22.53;20.73;;;12.50;99.90;;;;;;5092564;28;20970;-66
2021/04/29 03:57:23;;;;;;;21.10;19.70;;;12.40;99.90;;;;;;5093231;28;20801;-63
2021/04/29 03:59:50;;;;;;;21.87;20.37;;;12.40;99.90;;;;;;5093037;28;20446;-64
2021/04/29 04:02:17;;;;;;;22.00;20.30;;;12.30;99.90;;;;;;5093039;28;20465;-63
2021/04/29 04:04:43;;;;;;;24.60;22.50;;;12.30;99.90;;;;;;5093002;28;20459;-64
2021/04/29 04:07:09;;;;;;;23.23;21.53;;;12.30;99.90;;;;;;5092932;28;20847;-64
2021/04/29 04:09:35;;;;;;;23.60;21.73;;;12.30;99.90;;;;;;5092923;28;20442;-63
2021/04/29 04:12:01;;;;;;;24.00;21.80;;;12.20;99.90;;;;;;5092942;28;20447;-63
2021/04/29 04:14:28;;;;;;;23.37;21.63;;;12.20;99.90;;;;;;5092839;28;20458;-66
2021/04/29 04:16:54;;;;;;;23.63;21.73;;;12.10;99.90;;;;;;5092836;28;20548;-66
2021/04/29 04:19:22;;;;;;;23.47;21.87;;;12.10;99.90;;;;;;5092572;28;20515;-67
2021/04/29 04:21:48;;;;;;;23.37;21.67;;;12.00;99.90;;;;;;5092839;28;20911;-67
2021/04/29 04:24:14;;;;;;;25.37;23.40;;;12.00;99.90;;;;;;5092547;28;20489;-65
2021/04/29 04:26:40;;;;;;;23.97;22.23;;;12.00;99.90;;;;;;5092534;28;20859;-65
2021/04/29 04:29:06;;;;;;;24.87;23.07;;;11.90;99.90;;;;;;5092486;28;20446;-65
2021/04/29 04:31:33;;;;;;;26.50;24.10;;;11.90;99.90;;;;;;5092458;28;20444;-65
2021/04/29 04:33:59;;;;;;;26.37;24.13;;;11.90;99.90;;;;;;5092133;28;20502;-65
2021/04/29 04:36:26;;;;;;;25.73;23.93;;;11.90;99.90;;;;;;5092568;28;20442;-66
2021/04/29 04:38:52;;;;;;;26.43;24.20;;;11.90;99.90;;;;;;5092305;28;20445;-65
2021/04/29 04:41:18;;;;;;;25.03;23.03;;;11.90;99.90;;;;;;5092358;28;20461;-65
2021/04/29 04:43:44;;;;;;;27.80;25.23;;;11.90;99.90;;;;;;5092236;28;20797;-65
2021/04/29 04:46:11;;;;;;;28.00;25.70;;;11.90;99.90;;;;;;5092279;28;21010;-65
2021/04/29 04:48:37;;;;;;;28.67;26.20;;;11.80;99.90;;;;;;5092122;28;20447;-64
2021/04/29 04:51:03;;;;;;;29.83;27.30;;;11.80;99.90;;;;;;5092069;28;20438;-66
2021/04/29 04:53:30;;;;;;;28.17;25.90;;;11.80;99.90;;;;;;5092015;28;20508;-66
2021/04/29 04:55:57;;;;;;;27.33;25.33;;;11.80;99.90;;;;;;5091741;28;20462;-66
2021/04/29 04:58:23;;;;;;;28.80;26.40;;;11.80;99.90;;;;;;5090957;28;20477;-65
2021/04/29 05:00:49;;;;;;;28.70;26.53;;;11.80;99.90;;;;;;5090703;28;20495;-65
2021/04/29 05:03:16;;;;;;;29.30;27.00;;;11.80;99.90;;;;;;5090759;28;20920;-65
2021/04/29 05:05:44;;;;;;;29.90;27.27;;;11.80;99.90;;;;;;5090106;28;20462;-66
2021/04/29 05:08:10;;;;;;;31.50;28.13;;;11.90;99.90;;;;;;5090517;28;20446;-65
2021/04/29 05:10:38;;;;;;;30.97;28.77;;;11.90;99.90;;;;;;5090595;28;20489;-66
2021/04/29 05:13:05;;;;;;;29.40;27.10;;;11.90;99.90;;;;;;5090534;28;20449;-66
2021/04/29 05:15:32;;;;;;;30.50;27.63;;;11.90;99.90;;;;;;5091437;28;20466;-66
2021/04/29 05:17:59;;;;;;;30.63;27.80;;;12.00;99.90;;;;;;5091350;28;20499;-66
2021/04/29 05:20:26;;;;;;;32.90;30.10;;;12.00;99.90;;;;;;5091427;28;20539;-66
2021/04/29 05:22:53;;;;;;;31.33;28.77;;;11.90;99.90;;;;;;5091585;28;20443;-65
2021/04/29 05:25:19;;;;;;;30.80;28.27;;;11.90;99.90;;;;;;5091338;28;20461;-64
2021/04/29 05:27:46;;;;;;;32.03;29.43;;;12.00;99.90;;;;;;5091250;28;20856;-64
2021/04/29 05:30:13;;;;;;;34.03;30.60;;;12.00;99.90;;;;;;5091321;28;20447;-65
2021/04/29 05:32:39;;;;;;;33.87;30.87;;;12.00;99.90;;;;;;5091326;28;20442;-64
2021/04/29 05:35:07;;;;;;;33.33;30.53;;;11.90;99.90;;;;;;5091085;28;20476;-66
2021/04/29 05:37:33;;;;;;;35.07;31.87;;;11.80;99.90;;;;;;5091395;28;20442;-66
2021/04/29 05:39:59;;;;;;;35.27;32.20;;;11.80;99.90;;;;;;5090982;28;20446;-66
2021/04/29 05:42:25;;;;;;;36.37;32.80;;;11.80;99.90;;;;;;5091178;28;20450;-65
2021/04/29 05:44:52;;;;;;;35.07;31.43;;;11.70;99.90;;;;;;5091219;28;20458;-66
2021/04/29 05:47:19;;;;;;;32.30;29.47;;;11.60;99.90;;;;;;5090989;28;21002;-66
2021/04/29 05:49:45;;;;;;;35.73;32.17;;;11.60;99.90;;;;;;5091093;28;20527;-65
2021/04/29 05:52:11;;;;;;;34.70;32.07;;;11.60;99.90;;;;;;5091156;28;20524;-66
2021/04/29 05:54:38;;;;;;;34.17;31.27;;;11.70;99.90;;;;;;5091027;28;20990;-65
2021/04/29 05:57:05;;;;;;;33.93;30.23;;;11.70;99.90;;;;;;5091055;28;20441;-65
2021/04/29 05:59:32;;;;;;;34.50;31.53;;;11.50;99.90;;;;;;5091038;28;20812;-65
2021/04/29 06:01:59;;;;;;;27.63;25.57;;;11.50;99.90;;;;;;5091141;28;20443;-65
2021/04/29 06:04:25;;;;;;;34.43;31.47;;;11.50;99.90;;;;;;5090969;28;20983;-64
2021/04/29 06:06:51;;;;;;;33.83;30.93;;;11.40;99.90;;;;;;5090980;28;20501;-65
2021/04/29 06:09:18;;;;;;;32.60;29.77;;;11.30;99.90;;;;;;5090866;28;20434;-64
2021/04/29 06:11:44;;;;;;;32.87;29.90;;;11.30;99.90;;;;;;5091050;28;20442;-65
2021/04/29 06:14:12;;;;;;;34.60;31.17;;;11.40;99.90;;;;;;5090972;28;20474;-64
2021/04/29 06:16:39;;;;;;;33.50;30.43;;;11.50;99.90;;;;;;5091723;28;20469;-65
2021/04/29 06:19:06;;;;;;;33.23;30.63;;;11.50;99.90;;;;;;5094737;28;20442;-64
2021/04/29 06:21:32;;;;;;;34.37;30.90;;;11.60;99.90;;;;;;5094686;28;20439;-64
2021/04/29 06:23:58;;;;;;;32.50;29.73;;;11.80;99.90;;;;;;5094677;28;20442;-64
2021/04/29 06:26:25;;;;;;;35.00;31.60;;;11.90;99.90;;;;;;5094671;28;20484;-65
2021/04/29 06:28:51;;;;;;;33.40;30.37;;;11.80;99.90;;;;;;5094705;28;20446;-65
2021/04/29 06:31:17;;;;;;;33.20;30.03;;;11.80;99.90;;;;;;5094618;28;20442;-64
2021/04/29 06:33:44;;;;;;;35.23;32.13;;;11.80;99.90;;;;;;5094462;28;20509;-64
2021/04/29 06:36:11;;;;;;;33.60;30.70;;;11.80;99.90;;;;;;5094581;28;20536;-64
2021/04/29 06:38:37;;;;;;;36.13;32.43;;;11.80;99.90;;;;;;5094277;28;20487;-65
2021/04/29 06:41:04;;;;;;;33.77;30.57;;;11.90;99.90;;;;;;5094440;28;20450;-65
2021/04/29 06:43:30;;;;;;;35.50;32.47;;;12.00;99.80;;;;;;5094424;28;20452;-64
2021/04/29 06:45:56;;;;;;;35.27;32.03;;;12.10;99.30;;;;;;5094070;28;20481;-67
2021/04/29 06:48:23;;;;;;;34.67;31.40;;;12.10;98.80;;;;;;5094174;28;20445;-66
2021/04/29 06:50:49;;;;;;;34.67;31.67;;;12.20;98.80;;;;;;5094149;28;20950;-64
2021/04/29 06:53:16;;;;;;;34.00;30.90;;;12.20;98.60;;;;;;5104853;28;20446;-67
2021/04/29 06:55:43;;;;;;;35.77;32.57;;;12.30;97.90;;;;;;5112991;28;21011;-65
2021/04/29 06:58:09;;;;;;;37.43;33.97;;;12.30;97.80;;;;;;5115868;28;20477;-64
2021/04/29 07:00:36;;;;;;;38.50;35.10;;;12.30;98.20;;;;;;5113757;28;20447;-68
2021/04/29 07:03:02;;;;;;;38.00;34.70;;;12.40;98.20;;;;;;5117023;28;20443;-63
2021/04/29 07:05:28;;;;;;;35.10;31.70;;;12.40;97.80;;;;;;5096430;28;20461;-66
2021/04/29 07:07:55;;;;;;;41.33;37.83;;;12.40;98.50;;;;;;5093661;28;20485;-66
2021/04/29 07:10:23;;;;;;;39.47;35.73;;;12.50;99.40;;;;;;5093831;28;20442;-66
2021/04/29 07:12:50;;;;;;;40.87;37.13;;;12.70;99.80;;;;;;5093766;28;20452;-66
2021/04/29 07:15:16;;;;;;;46.87;42.10;;;12.80;99.80;;;;;;5093589;28;20466;-66
2021/04/29 07:17:43;;;;;;;44.90;40.60;;;13.10;99.80;;;;;;5093597;28;20438;-66
2021/04/29 07:20:10;;;;;;;50.17;45.37;;;13.30;99.80;;;;;;5093669;28;20434;-67
2021/04/29 07:22:37;;;;;;;52.57;47.10;;;13.50;99.10;;;;;;5093623;28;20443;-66
2021/04/29 07:25:03;;;;;;;50.33;45.20;;;13.70;98.50;;;;;;5093665;28;20455;-66
2021/04/29 07:27:30;;;;;;;53.90;48.67;;;13.60;98.50;;;;;;5093391;28;20481;-65
2021/04/29 07:29:57;;;;;;;55.07;49.50;;;13.50;98.60;;;;;;5093252;28;20443;-65
2021/04/29 07:32:23;;;;;;;50.13;45.27;;;13.60;98.90;;;;;;5093486;28;20958;-65
2021/04/29 07:34:49;;;;;;;53.10;47.90;;;13.50;98.30;;;;;;5093347;28;20477;-65
2021/04/29 07:37:15;;;;;;;56.27;51.00;;;13.40;99.10;;;;;;5093433;28;20441;-66
2021/04/29 07:39:41;;;;;;;58.13;52.50;;;13.30;99.70;;;;;;5103153;28;20492;-67
2021/04/29 07:42:08;;;;;;;55.93;48.40;;;13.30;99.70;;;;;;5108881;28;20936;-68
2021/04/29 07:44:35;;;;;;;57.87;52.03;;;13.50;99.60;;;;;;5108919;28;20477;-67
2021/04/29 07:47:01;;;;;;;52.03;46.40;;;13.50;98.90;;;;;;5106225;28;20555;-65
2021/04/29 07:49:27;;;;;;;51.40;45.20;;;13.30;98.70;;;;;;5104496;28;20449;-66
2021/04/29 07:51:54;;;;;;;58.67;52.07;;;13.00;98.90;;;;;;5103974;28;20433;-67
2021/04/29 07:54:20;;;;;;;55.30;48.57;;;13.00;99.90;;;;;;5108507;28;20530;-67
2021/04/29 07:56:56;;;;;;;54.20;48.87;;;13.10;99.90;;;;;;5111636;28;20442;-64
2021/04/29 07:59:22;;;;;;;58.83;47.70;;;12.90;99.90;;;;;;5112600;28;20529;-67
2021/04/29 08:01:50;;;;;;;53.83;48.17;;;13.40;99.60;;;;;;5113668;28;20449;-64
2021/04/29 08:04:19;;;;;;;55.70;50.43;;;13.50;97.80;;;;;;5113239;28;20473;-63
2021/04/29 08:06:45;;;;;;;44.10;40.10;;;13.70;97.30;;;;;;5113813;28;20499;-66
2021/04/29 08:09:12;;;;;;;56.10;50.30;;;13.90;96.20;;;;;;5114987;28;20438;-63
2021/04/29 08:11:38;;;;;;;53.00;47.90;;;14.20;94.90;;;;;;5115249;28;20471;-64
2021/04/29 08:14:04;;;;;;;54.83;49.73;;;14.30;94.40;;;;;;5112861;28;20503;-66
2021/04/29 08:16:31;;;;;;;54.63;48.87;;;14.50;92.90;;;;;;5113158;28;20442;-65
2021/04/29 08:18:58;;;;;;;53.97;48.97;;;14.50;92.90;;;;;;5111543;28;20453;-62
2021/04/29 08:21:24;;;;;;;51.13;46.03;;;14.50;92.20;;;;;;5109653;28;20438;-65
2021/04/29 08:23:50;;;;;;;55.23;50.03;;;14.80;92.70;;;;;;5109489;28;20438;-66
2021/04/29 08:26:16;;;;;;;45.87;41.63;;;15.00;91.70;;;;;;5112187;28;20467;-65
2021/04/29 08:28:42;;;;;;;50.60;45.93;;;15.00;90.30;;;;;;5110968;28;20442;-66
2021/04/29 08:31:09;;;;;;;48.50;44.07;;;14.70;90.20;;;;;;5112490;28;20422;-62
2021/04/29 08:33:35;;;;;;;47.57;43.37;;;14.60;88.90;;;;;;5113886;28;20446;-66
2021/04/29 08:36:02;;;;;;;48.00;43.43;;;14.80;88.30;;;;;;5112661;28;20476;-64
2021/04/29 08:38:28;;;;;;;50.77;46.00;;;14.70;88.90;;;;;;5106568;28;20504;-65
2021/04/29 08:40:55;;;;;;;51.60;46.30;;;14.50;87.30;;;;;;5101130;28;20439;-65
2021/04/29 08:43:21;;;;;;;46.23;42.13;;;14.40;86.00;;;;;;5108054;28;20477;-66
2021/04/29 08:45:47;;;;;;;46.50;42.03;;;14.20;85.40;;;;;;5108437;28;20462;-65
2021/04/29 08:48:17;;;;;;;47.60;42.83;;;14.20;86.00;;;;;;5107320;28;20808;-67
2021/04/29 08:50:43;;;;;;;48.57;44.13;;;14.30;85.80;;;;;;5107735;28;20450;-65
2021/04/29 08:53:10;;;;;;;47.10;43.00;;;14.50;85.50;;;;;;5109039;28;20434;-64
2021/04/29 08:55:37;;;;;;;42.67;38.20;;;14.50;83.50;;;;;;5094969;28;20470;-66
2021/04/29 08:58:03;;;;;;;47.20;42.40;;;14.50;83.30;;;;;;5091661;28;20446;-65
2021/04/29 09:00:29;;;;;;;45.57;41.37;;;14.40;83.60;;;;;;5091837;28;20450;-67
2021/04/29 09:02:57;;;;;;;42.27;38.23;;;14.60;84.10;;;;;;5091830;28;20451;-66
2021/04/29 09:05:24;;;;;;;43.17;39.53;;;15.00;81.50;;;;;;5091465;28;20557;-63
2021/04/29 09:07:56;;;;;;;44.33;40.03;;;14.90;77.20;;;;;;5091358;28;20473;-65
2021/04/29 09:10:25;;;;;;;43.13;39.53;;;15.40;77.10;;;;;;5091640;28;20442;-64
2021/04/29 09:12:52;;;;;;;46.03;41.90;;;15.50;75.10;;;;;;5091538;28;20442;-65
2021/04/29 09:15:23;;;;;;;44.77;40.63;;;15.70;74.20;;;;;;5091583;28;20463;-66
2021/04/29 09:17:52;;;;;;;43.27;39.73;;;15.90;75.40;;;;;;5091377;28;20473;-64
2021/04/29 09:20:22;;;;;;;44.97;41.23;;;16.00;70.70;;;;;;5091381;28;20445;-66
2021/04/29 09:22:58;;;;;;;47.57;43.13;;;16.60;69.70;;;;;;5091583;28;20496;-66
2021/04/29 09:25:25;;;;;;;45.93;42.00;;;16.80;67.00;;;;;;5091362;28;20461;-66
2021/04/29 09:27:53;;;;;;;44.70;40.90;;;16.70;65.00;;;;;;5091087;28;20486;-66
2021/04/29 09:30:24;;;;;;;47.67;43.77;;;16.80;64.20;;;;;;5091328;28;20438;-66
2021/04/29 09:32:50;;;;;;;44.53;40.67;;;16.90;64.50;;;;;;5091356;28;20954;-66
2021/04/29 09:35:21;;;;;;;48.57;43.80;;;17.40;63.40;;;;;;5091145;28;20667;-66
2021/04/29 09:37:48;;;;;;;45.93;41.80;;;17.60;62.50;;;;;;5091186;28;20434;-66
2021/04/29 09:40:25;;;;;;;46.97;43.13;;;17.30;60.60;;;;;;5091359;28;20499;-64
2021/04/29 09:42:53;;;;;;;44.60;40.93;;;17.00;59.90;;;;;;5095146;28;20452;-66
2021/04/29 09:45:25;;;;;;;44.23;40.13;;;17.00;60.50;;;;;;5102809;28;20489;-67
2021/04/29 09:48:02;;;;;;;43.20;39.53;;;16.80;59.90;;;;;;5101582;28;20482;-68
2021/04/29 09:50:30;;;;;;;40.93;37.20;;;16.60;59.20;;;;;;5101064;28;20447;-68
2021/04/29 09:53:04;;;;;;;39.70;36.33;;;16.50;59.60;;;;;;5106806;28;20475;-67
2021/04/29 09:55:33;;;;;;;41.33;38.13;;;16.40;59.70;;;;;;5108207;28;20465;-66
2021/04/29 09:58:14;;;;;;;35.97;32.97;;;16.50;60.20;;;;;;5102757;28;20446;-65
2021/04/29 10:00:41;;;;;;;37.10;34.03;;;16.90;57.40;;;;;;5095081;28;20450;-65
2021/04/29 10:03:07;;;;;;;35.80;32.67;;;17.10;55.50;;;;;;5095044;28;20442;-64
2021/04/29 10:05:37;;;;;;;35.60;32.63;;;17.30;55.70;;;;;;5095404;28;20979;-66
2021/04/29 10:08:08;;;;;;;36.20;33.30;;;17.20;54.60;;;;;;5094873;28;20484;-64
2021/04/29 10:10:38;;;;;;;34.80;32.33;;;17.30;55.30;;;;;;5094978;28;20776;-67
2021/04/29 10:13:06;;;;;;;33.03;30.63;;;17.70;54.60;;;;;;5095083;28;20446;-65
2021/04/29 10:15:34;;;;;;;34.93;32.50;;;17.50;53.00;;;;;;5094868;28;20459;-64
2021/04/29 10:18:00;;;;;;;34.97;32.27;;;17.00;52.40;;;;;;5094718;28;20979;-63
2021/04/29 10:20:30;;;;;;;33.57;31.37;;;16.50;53.00;;;;;;5094746;28;20438;-64
2021/04/29 10:22:57;;;;;;;33.43;30.93;;;16.40;52.90;;;;;;5096059;28;20542;-67
2021/04/29 10:25:28;;;;;;;36.63;34.07;;;16.60;53.20;;;;;;5104116;28;20458;-67
2021/04/29 10:27:56;;;;;;;35.27;32.83;;;17.10;52.70;;;;;;5102098;28;20482;-68
2021/04/29 10:30:31;;;;;;;35.77;33.03;;;17.10;52.20;;;;;;5103104;28;20450;-68
2021/04/29 10:32:59;;;;;;;33.30;30.70;;;17.00;52.10;;;;;;5094812;28;20434;-67
2021/04/29 10:35:27;;;;;;;33.73;31.17;;;17.40;52.80;;;;;;5094443;28;20539;-67
2021/04/29 10:37:55;;;;;;;35.10;32.50;;;18.10;52.40;;;;;;5094272;28;20442;-67
2021/04/29 10:40:35;;;;;;;33.00;30.80;;;19.30;50.90;;;;;;5094481;28;20453;-66
2021/04/29 10:43:02;;;;;;;33.97;31.10;;;19.60;48.00;;;;;;5094609;28;20499;-66
2021/04/29 10:45:30;;;;;;;34.23;31.83;;;19.20;48.20;;;;;;5094607;28;20504;-67
2021/04/29 10:48:08;;;;;;;32.17;30.17;;;19.40;48.00;;;;;;5094362;28;20477;-67
2021/04/29 10:50:45;;;;;;;34.40;32.00;;;18.80;48.10;;;;;;5096529;28;20449;-65
2021/04/29 10:53:12;;;;;;;32.83;30.63;;;18.70;47.70;;;;;;5098256;28;20438;-65
2021/04/29 10:55:43;;;;;;;32.70;30.70;;;19.70;47.20;;;;;;5094006;28;20462;-63
2021/04/29 10:58:20;;;;;;;35.33;32.63;;;19.60;46.70;;;;;;5096908;28;20978;-67
2021/04/29 11:00:59;;;;;;;35.87;33.17;;;19.00;45.90;;;;;;5098508;28;20450;-67
2021/04/29 11:03:34;;;;;;;33.07;30.77;;;18.50;47.30;;;;;;5095788;28;20450;-66
2021/04/29 11:06:09;;;;;;;33.83;31.40;;;17.60;47.90;;;;;;5093790;28;20458;-66
2021/04/29 11:08:37;;;;;;;36.37;33.63;;;16.40;49.60;;;;;;5093846;28;20509;-65
2021/04/29 11:11:03;;;;;;;35.23;32.70;;;15.60;51.60;;;;;;5093749;28;20439;-66
2021/04/29 11:13:30;;;;;;;39.03;35.13;;;15.30;54.10;;;;;;5093869;28;20931;-66
2021/04/29 11:15:57;;;;;;;39.73;36.47;;;14.70;57.60;;;;;;5093748;28;20473;-66
2021/04/29 11:18:24;;;;;;;35.37;32.70;;;14.10;66.50;;;;;;5093465;28;20536;-65
2021/04/29 11:20:52;;;;;;;33.83;31.33;;;13.80;90.30;;;;;;5093597;28;20449;-65
2021/04/29 11:23:20;;;;;;;31.27;29.07;;;13.10;99.70;;;;;;5093639;28;20442;-65
2021/04/29 11:25:46;;;;;;;32.53;30.30;;;12.90;99.90;;;;;;5093919;28;20462;-67
2021/04/29 11:28:13;;;;;;;29.30;26.90;;;13.00;99.90;;;;;;5094488;28;20531;-67
2021/04/29 11:30:40;;;;;;;26.60;25.00;;;13.50;99.90;;;;;;5095001;28;20447;-64
2021/04/29 11:33:12;;;;;;;27.17;25.57;;;13.90;99.80;;;;;;5093400;28;20469;-65
2021/04/29 11:35:41;;;;;;;27.07;25.67;;;15.30;94.60;;;;;;5094915;28;20510;-63
2021/04/29 11:38:11;;;;;;;26.40;25.00;;;18.30;86.70;;;;;;5093187;28;20444;-65
2021/04/29 11:40:38;;;;;;;27.33;25.80;;;20.80;64.90;;;;;;5098814;28;21047;-67
2021/04/29 11:43:05;;;;;;;26.73;25.37;;;22.90;53.60;;;;;;5102098;28;20446;-67
2021/04/29 11:45:33;;;;;;;26.60;25.10;;;23.10;47.80;;;;;;5095059;28;20470;-66
2021/04/29 11:48:02;;;;;;;27.93;26.33;;;24.20;45.10;;;;;;5099276;28;20478;-67
2021/04/29 11:50:30;;;;;;;27.80;25.80;;;22.70;42.90;;;;;;5102955;28;20476;-67
2021/04/29 11:53:09;;;;;;;27.27;25.60;;;19.60;46.00;;;;;;5098971;28;20495;-65
2021/04/29 11:55:36;;;;;;;27.20;25.50;;;18.10;49.80;;;;;;5092978;28;20462;-65
2021/04/29 11:58:05;;;;;;;27.47;25.77;;;17.10;52.70;;;;;;5093054;28;20442;-65
2021/04/29 12:00:34;;;;;;;26.90;25.40;;;16.70;53.70;;;;;;5096340;28;20446;-67
2021/04/29 12:03:01;;;;;;;26.57;25.07;;;16.80;54.40;;;;;;5098518;28;20531;-66
2021/04/29 12:05:32;;;;;;;25.30;23.80;;;16.90;53.20;;;;;;5098557;28;20462;-67
2021/04/29 12:07:59;;;;;;;24.27;22.73;;;17.10;51.80;;;;;;5098051;28;20551;-67
2021/04/29 12:10:26;;;;;;;24.00;22.60;;;17.10;51.60;;;;;;5096691;28;20441;-67
2021/04/29 12:12:52;;;;;;;24.60;23.30;;;16.20;52.20;;;;;;5096550;28;20438;-67
2021/04/29 12:15:18;;;;;;;24.17;22.90;;;15.90;52.50;;;;;;5093090;28;20515;-65
2021/04/29 12:17:45;;;;;;;23.33;22.07;;;15.50;52.20;;;;;;5092351;28;20994;-66
2021/04/29 12:20:11;;;;;;;24.50;23.00;;;14.80;53.40;;;;;;5092435;28;21061;-65
2021/04/29 12:22:39;;;;;;;25.20;23.67;;;14.40;54.30;;;;;;5092631;28;20457;-65
2021/04/29 12:25:08;;;;;;;24.13;22.53;;;14.30;55.50;;;;;;5092373;28;20462;-65
2021/04/29 12:27:41;;;;;;;22.70;21.40;;;14.60;55.90;;;;;;5093540;28;20485;-67
2021/04/29 12:30:09;;;;;;;23.80;22.50;;;14.40;55.60;;;;;;5095505;28;20450;-67